Time;durP1;ratioP1;P1;durP2;ratioP2;P2;SDS_P1;SDS_P2;PMS_P1;PMS_P2;Temp;Humidity;BMP_temperature;BMP_pressure;BME280_temperature;BME280_humidity;BME280_pressure;Samples;Min_cycle;Max_cycle;Signal;HPM_P1;HPM_P2
2023/02/15 00:00:05;;;;;;;;;;;6.40;98.10;6.70;100780.00;;;;337833;28;83433;-86
2023/02/15 00:00:18;;;;;;;;;;;6.40;98.40;6.70;100779.00;;;;337428;28;91382;-87
2023/02/15 00:00:29;;;;;;;;;;;6.40;98.70;6.80;100788.00;;;;340403;28;83502;-87
2023/02/15 00:00:41;;;;;;;;;;;6.30;98.50;6.90;100781.00;;;;340154;28;87630;-87
2023/02/15 00:00:56;;;;;;;;;;;6.30;98.20;6.80;100785.00;;;;340378;28;83569;-87
2023/02/15 00:01:08;;;;;;;;;;;6.30;98.30;6.90;100781.00;;;;336146;28;89965;-86
2023/02/15 00:01:20;;;;;;;;;;;6.30;98.30;7.00;100784.00;;;;335304;29;83315;-87
2023/02/15 00:01:33;;;;;;;;;;;6.30;98.10;7.00;100791.00;;;;338779;28;88387;-86
2023/02/15 00:01:45;;;;;;;;;;;6.30;97.90;6.90;100785.00;;;;340509;28;83377;-87
2023/02/15 00:01:57;;;;;;;;;;;6.30;97.80;6.90;100788.00;;;;338669;28;91731;-86
2023/02/15 00:02:09;;;;;;;;;;;6.30;97.80;6.90;100789.00;;;;340413;28;83360;-86
2023/02/15 00:02:21;;;;;;;;;;;6.30;97.80;6.90;100795.00;;;;338302;28;91944;-87
2023/02/15 00:02:33;;;;;;;;;;;6.40;97.90;7.00;100787.00;;;;336531;28;83504;-87
2023/02/15 00:02:44;;;;;;;;;;;6.40;97.70;7.00;100788.00;;;;338829;28;88755;-87
2023/02/15 00:02:56;;;;;;;;;;;6.30;97.90;7.00;100791.00;;;;339036;28;83462;-87
2023/02/15 00:03:08;;;;;;;;;;;6.30;98.10;6.90;100789.00;;;;337340;28;91685;-86
2023/02/15 00:03:20;;;;;;;;;;;6.30;98.30;6.90;100798.00;;;;341811;28;83280;-87
2023/02/15 00:03:32;;;;;;;;;;;6.30;98.50;6.90;100783.00;;;;338658;28;90383;-86
2023/02/15 00:03:44;;;;;;;;;;;6.30;98.70;6.90;100784.00;;;;335286;29;82572;-86
2023/02/15 00:03:56;;;;;;;;;;;6.30;98.70;6.80;100785.00;;;;337376;28;89161;-87
2023/02/15 00:04:09;;;;;;;;;;;6.30;98.70;6.80;100786.00;;;;339070;28;83396;-87
2023/02/15 00:04:22;;;;;;;;;;;6.30;98.70;6.70;100782.00;;;;335938;28;88588;-87
2023/02/15 00:04:46;;;;;;;;;;;6.30;99.10;6.70;100790.00;;;;336503;28;83781;-87
2023/02/15 00:04:58;;;;;;;;;;;6.30;99.80;6.80;100785.00;;;;340031;28;89174;-86
2023/02/15 00:05:09;;;;;;;;;;;6.30;99.90;6.80;100792.00;;;;340549;28;83405;-87
2023/02/15 00:05:21;;;;;;;;;;;6.20;99.90;6.80;100787.00;;;;337284;28;94081;-87
2023/02/15 00:05:33;;;;;;;;;;;6.30;99.90;6.90;100790.00;;;;340517;28;83400;-87
2023/02/15 00:05:45;;;;;;;;;;;6.30;99.90;6.90;100783.00;;;;336159;28;88797;-87
2023/02/15 00:05:57;;;;;;;;;;;6.30;99.90;6.80;100790.00;;;;336516;28;83115;-86
2023/02/15 00:06:09;;;;;;;;;;;6.30;99.90;6.80;100789.00;;;;343476;28;89145;-87
2023/02/15 00:06:21;;;;;;;;;;;6.30;99.90;6.80;100793.00;;;;342014;28;82665;-87
2023/02/15 00:06:33;;;;;;;;;;;6.30;99.90;6.80;100785.00;;;;344312;28;91056;-85
2023/02/15 00:06:44;;;;;;;;;;;6.30;99.80;6.90;100784.00;;;;341834;28;84126;-86
2023/02/15 00:06:56;;;;;;;;;;;6.30;99.70;7.10;100790.00;;;;337200;28;92060;-86
2023/02/15 00:07:08;;;;;;;;;;;6.30;99.60;7.00;100792.00;;;;337849;28;83477;-87
2023/02/15 00:07:20;;;;;;;;;;;6.30;99.60;7.00;100789.00;;;;338679;28;91433;-87
2023/02/15 00:07:32;;;;;;;;;;;6.30;99.40;6.90;100787.00;;;;340316;28;83737;-86
2023/02/15 00:07:44;;;;;;;;;;;6.30;99.70;6.90;100792.00;;;;337437;28;91971;-87
2023/02/15 00:07:55;;;;;;;;;;;6.30;99.60;7.00;100787.00;;;;337632;28;82405;-87
2023/02/15 00:08:07;;;;;;;;;;;6.30;99.40;7.00;100791.00;;;;339767;28;91888;-86
2023/02/15 00:08:19;;;;;;;;;;;6.30;99.40;7.10;100787.00;;;;337847;28;82507;-86
2023/02/15 00:08:31;;;;;;;;;;;6.30;99.60;7.00;100785.00;;;;336152;28;88779;-87
2023/02/15 00:08:43;;;;;;;;;;;6.30;99.60;7.00;100790.00;;;;340562;28;82528;-87
2023/02/15 00:08:54;;;;;;;;;;;6.30;99.70;7.00;100791.00;;;;337280;28;92013;-87
2023/02/15 00:09:06;;;;;;;;;;;6.30;99.50;7.00;100791.00;;;;339113;28;83364;-87
2023/02/15 00:09:18;;;;;;;;;;;6.30;99.40;7.10;100782.00;;;;339921;28;92355;-87
2023/02/15 00:09:30;;;;;;;;;;;6.30;99.20;7.10;100789.00;;;;336335;28;83372;-86
2023/02/15 00:09:41;;;;;;;;;;;6.30;99.20;7.00;100789.00;;;;340098;28;92484;-87
2023/02/15 00:09:53;;;;;;;;;;;6.30;99.40;7.00;100789.00;;;;339067;28;83337;-87
2023/02/15 00:10:06;;;;;;;;;;;6.30;99.30;7.00;100783.00;;;;341134;28;92096;-87
2023/02/15 00:10:17;;;;;;;;;;;6.30;99.10;7.00;100790.00;;;;336380;28;83527;-87
2023/02/15 00:10:29;;;;;;;;;;;6.30;99.00;6.90;100795.00;;;;336024;28;90702;-86
2023/02/15 00:10:41;;;;;;;;;;;6.30;99.10;6.90;100783.00;;;;339281;28;83339;-87
2023/02/15 00:10:53;;;;;;;;;;;6.30;99.40;6.90;100787.00;;;;337277;28;92269;-87
2023/02/15 00:11:08;;;;;;;;;;;6.30;99.50;6.90;100784.00;;;;337803;28;83348;-87
2023/02/15 00:11:39;;;;;;;;;;;6.30;99.30;6.90;100788.00;;;;337260;28;92988;-87
2023/02/15 00:11:51;;;;;;;;;;;6.30;99.00;6.80;100783.00;;;;336523;28;83470;-87
2023/02/15 00:12:03;;;;;;;;;;;6.30;99.90;6.90;100784.00;;;;336177;28;88804;-87
2023/02/15 00:12:15;;;;;;;;;;;6.30;99.90;6.90;100780.00;;;;336436;28;82498;-87
2023/02/15 00:12:26;;;;;;;;;;;6.30;99.80;6.90;100780.00;;;;340056;28;89816;-87
2023/02/15 00:12:38;;;;;;;;;;;6.30;99.40;6.90;100784.00;;;;339128;28;82405;-87
2023/02/15 00:12:50;;;;;;;;;;;6.30;99.20;6.90;100784.00;;;;338725;28;90449;-87
2023/02/15 00:13:01;;;;;;;;;;;6.30;99.20;7.00;100783.00;;;;340088;28;83428;-87
2023/02/15 00:13:13;;;;;;;;;;;6.30;99.10;7.00;100777.00;;;;337372;28;89176;-86
2023/02/15 00:13:25;;;;;;;;;;;6.30;99.10;6.90;100786.00;;;;339178;28;83394;-87
2023/02/15 00:13:38;;;;;;;;;;;6.30;99.20;6.90;100786.00;;;;341182;28;93242;-87
2023/02/15 00:13:50;;;;;;;;;;;6.30;99.60;6.90;100783.00;;;;343439;28;83284;-87
2023/02/15 00:14:02;;;;;;;;;;;6.30;99.80;6.80;100788.00;;;;344272;28;92895;-86
2023/02/15 00:14:21;;;;;;;;;;;6.30;99.90;6.80;100788.00;;;;338931;28;83376;-87
2023/02/15 00:14:33;;;;;;;;;;;6.30;99.90;6.70;100781.00;;;;337410;28;88913;-86
2023/02/15 00:14:44;;;;;;;;;;;6.30;99.70;6.70;100778.00;;;;339250;28;83387;-87
2023/02/15 00:14:56;;;;;;;;;;;6.30;99.70;6.70;100782.00;;;;340007;28;91468;-87
2023/02/15 00:15:08;;;;;;;;;;;6.20;99.70;6.70;100790.00;;;;339101;28;83372;-87
2023/02/15 00:15:19;;;;;;;;;;;6.20;99.90;6.70;100786.00;;;;338714;28;91299;-87
2023/02/15 00:15:31;;;;;;;;;;;6.20;99.90;6.70;100784.00;;;;338682;28;83308;-87
2023/02/15 00:15:43;;;;;;;;;;;6.20;99.90;6.70;100780.00;;;;337532;28;90043;-86
2023/02/15 00:16:00;;;;;;;;;;;6.20;99.90;6.60;100787.00;;;;337738;28;83463;-87
2023/02/15 00:16:12;;;;;;;;;;;6.20;99.90;6.70;100783.00;;;;344156;28;91994;-87
2023/02/15 00:16:24;;;;;;;;;;;6.20;99.90;6.70;100788.00;;;;343328;28;83437;-87
2023/02/15 00:16:37;;;;;;;;;;;6.20;99.90;6.60;100770.00;;;;340012;28;91695;-86
2023/02/15 00:16:50;;;;;;;;;;;6.20;99.90;6.60;100786.00;;;;339160;28;83400;-87
2023/02/15 00:17:01;;;;;;;;;;;6.20;99.90;6.60;100780.00;;;;337328;28;88902;-87
2023/02/15 00:17:13;;;;;;;;;;;6.20;99.90;6.60;100778.00;;;;339098;28;82362;-87
2023/02/15 00:17:28;;;;;;;;;;;6.20;99.90;6.70;100780.00;;;;337456;28;88419;-87
2023/02/15 00:17:40;;;;;;;;;;;6.20;99.90;6.70;100781.00;;;;339141;28;83279;-87
2023/02/15 00:17:52;;;;;;;;;;;6.10;99.90;6.70;100772.00;;;;338758;28;89800;-87
2023/02/15 00:18:04;;;;;;;;;;;6.20;99.90;6.70;100779.00;;;;336523;28;82545;-87
2023/02/15 00:18:15;;;;;;;;;;;6.20;99.90;6.80;100779.00;;;;336033;28;91532;-86
2023/02/15 00:18:27;;;;;;;;;;;6.20;99.90;6.70;100789.00;;;;339045;28;83315;-87
2023/02/15 00:18:39;;;;;;;;;;;6.20;99.90;6.80;100779.00;;;;341375;28;89916;-87
2023/02/15 00:18:51;;;;;;;;;;;6.20;99.90;6.80;100787.00;;;;337813;28;83543;-87
2023/02/15 00:19:03;;;;;;;;;;;6.20;99.90;6.80;100780.00;;;;338400;28;92479;-86
2023/02/15 00:19:16;;;;;;;;;;;6.10;99.90;6.70;100780.00;;;;338968;28;82588;-87
2023/02/15 00:19:28;;;;;;;;;;;6.20;99.90;6.60;100781.00;;;;337392;28;89418;-87
2023/02/15 00:19:40;;;;;;;;;;;6.20;99.90;6.70;100786.00;;;;339055;28;84577;-87
2023/02/15 00:19:51;;;;;;;;;;;6.20;99.90;6.70;100784.00;;;;340031;28;89954;-87
2023/02/15 00:20:04;;;;;;;;;;;6.10;99.90;6.70;100782.00;;;;337947;28;82384;-87
2023/02/15 00:20:16;;;;;;;;;;;6.10;99.90;6.70;100780.00;;;;337363;28;88194;-87
2023/02/15 00:20:28;;;;;;;;;;;6.10;99.90;6.70;100775.00;;;;340435;28;82564;-87
2023/02/15 00:20:39;;;;;;;;;;;6.10;99.90;6.70;100780.00;;;;341355;28;91948;-87
2023/02/15 00:20:51;;;;;;;;;;;6.10;99.90;6.70;100783.00;;;;341937;28;83502;-87
2023/02/15 00:21:04;;;;;;;;;;;6.20;99.90;6.70;100785.00;;;;337374;28;91384;-87
2023/02/15 00:21:16;;;;;;;;;;;6.10;99.90;6.70;100782.00;;;;339022;28;83403;-87
2023/02/15 00:21:31;;;;;;;;;;;6.20;99.90;6.70;100778.00;;;;338571;28;92469;-87
2023/02/15 00:21:43;;;;;;;;;;;6.20;99.90;6.70;100782.00;;;;338825;28;83362;-87
2023/02/15 00:21:55;;;;;;;;;;;6.20;99.90;6.70;100784.00;;;;335996;28;93286;-86
2023/02/15 00:22:07;;;;;;;;;;;6.10;99.90;6.60;100780.00;;;;340403;28;83151;-87
2023/02/15 00:22:19;;;;;;;;;;;6.10;99.90;6.60;100787.00;;;;341279;28;91117;-86
2023/02/15 00:22:31;;;;;;;;;;;6.10;99.90;6.70;100782.00;;;;336482;28;82533;-87
2023/02/15 00:22:43;;;;;;;;;;;6.10;99.90;6.70;100786.00;;;;336133;28;89119;-86
2023/02/15 00:22:54;;;;;;;;;;;6.10;99.90;6.70;100789.00;;;;339039;28;83586;-86
2023/02/15 00:23:06;;;;;;;;;;;6.10;99.90;6.70;100771.00;;;;337398;28;92423;-87
2023/02/15 00:23:18;;;;;;;;;;;6.20;99.90;6.70;100782.00;;;;336507;28;83364;-87
2023/02/15 00:23:30;;;;;;;;;;;6.10;99.90;6.70;100782.00;;;;337405;28;88750;-87
2023/02/15 00:23:41;;;;;;;;;;;6.10;99.90;6.70;100777.00;;;;340428;28;83447;-87
2023/02/15 00:23:53;;;;;;;;;;;6.10;99.90;6.60;100779.00;;;;338572;28;92142;-87
2023/02/15 00:24:06;;;;;;;;;;;6.10;99.90;6.70;100784.00;;;;336561;28;83369;-87
2023/02/15 00:24:21;;;;;;;;;;;6.10;99.90;6.70;100781.00;;;;335886;28;88579;-87
2023/02/15 00:24:32;;;;;;;;;;;6.10;99.90;6.60;100787.00;;;;339183;28;82561;-87
2023/02/15 00:24:44;;;;;;;;;;;6.10;99.90;6.60;100784.00;;;;338709;28;90714;-87
2023/02/15 00:24:56;;;;;;;;;;;6.10;99.90;6.70;100779.00;;;;346069;28;83307;-86
2023/02/15 00:25:08;;;;;;;;;;;6.10;99.90;6.80;100786.00;;;;347090;28;91655;-87
2023/02/15 00:25:19;;;;;;;;;;;6.10;99.90;6.90;100779.00;;;;343312;28;83428;-87
2023/02/15 00:25:31;;;;;;;;;;;6.10;99.90;6.90;100776.00;;;;346531;28;89318;-87
2023/02/15 00:25:43;;;;;;;;;;;6.20;99.90;6.80;100783.00;;;;348017;28;83362;-87
2023/02/15 00:26:04;;;;;;;;;;;6.10;99.90;6.90;100782.00;;;;347894;28;88726;-84
2023/02/15 00:26:16;;;;;;;;;;;6.20;99.90;6.90;100786.00;;;;349556;27;83454;-86
2023/02/15 00:26:29;;;;;;;;;;;6.20;99.90;6.80;100778.00;;;;349095;27;91476;-87
2023/02/15 00:26:41;;;;;;;;;;;6.20;99.90;6.80;100785.00;;;;348178;28;83360;-85
2023/02/15 00:26:53;;;;;;;;;;;6.20;99.90;6.80;100790.00;;;;347765;28;89311;-87
2023/02/15 00:27:05;;;;;;;;;;;6.20;99.90;6.80;100792.00;;;;349486;27;83321;-85
2023/02/15 00:27:17;;;;;;;;;;;6.20;99.90;6.80;100784.00;;;;347660;28;88118;-87
2023/02/15 00:27:29;;;;;;;;;;;6.20;99.90;6.70;100782.00;;;;349287;27;82587;-87
2023/02/15 00:27:41;;;;;;;;;;;6.20;99.90;6.70;100786.00;;;;347516;28;89231;-87
2023/02/15 00:27:52;;;;;;;;;;;6.20;99.90;6.60;100786.00;;;;349185;27;82483;-86
2023/02/15 00:28:04;;;;;;;;;;;6.20;99.90;6.60;100789.00;;;;346943;28;89761;-87
2023/02/15 00:28:16;;;;;;;;;;;6.20;99.90;6.60;100790.00;;;;345967;28;83259;-87
2023/02/15 00:28:28;;;;;;;;;;;6.20;99.90;6.60;100790.00;;;;345597;28;91963;-87
2023/02/15 00:28:39;;;;;;;;;;;6.10;99.90;6.60;100786.00;;;;347542;28;82403;-87
2023/02/15 00:28:51;;;;;;;;;;;6.10;99.90;6.60;100782.00;;;;345511;28;92328;-87
2023/02/15 00:29:03;;;;;;;;;;;6.10;99.90;6.60;100784.00;;;;346054;28;83500;-87
2023/02/15 00:29:15;;;;;;;;;;;6.10;99.90;6.60;100786.00;;;;348509;27;89156;-87
2023/02/15 00:29:27;;;;;;;;;;;6.10;99.90;6.60;100781.00;;;;347418;28;82341;-87
2023/02/15 00:29:39;;;;;;;;;;;6.10;99.90;6.60;100782.00;;;;347015;28;92177;-87
2023/02/15 00:29:51;;;;;;;;;;;6.10;99.90;6.60;100780.00;;;;347610;28;83460;-87
2023/02/15 00:30:03;;;;;;;;;;;6.10;99.90;6.60;100773.00;;;;347261;28;92777;-87
2023/02/15 00:30:15;;;;;;;;;;;6.10;99.90;6.60;100779.00;;;;347528;27;83431;-87
2023/02/15 00:30:26;;;;;;;;;;;6.10;99.90;6.60;100782.00;;;;347225;28;88776;-87
2023/02/15 00:30:38;;;;;;;;;;;6.10;99.90;6.70;100777.00;;;;349217;27;82415;-86
2023/02/15 00:30:50;;;;;;;;;;;6.10;99.90;6.70;100781.00;;;;348544;27;92175;-88
2023/02/15 00:31:11;;;;;;;;;;;6.10;99.90;6.70;100779.00;;;;350603;27;82543;-87
2023/02/15 00:31:23;;;;;;;;;;;6.10;99.90;6.80;100784.00;;;;345779;28;90658;-87
2023/02/15 00:31:35;;;;;;;;;;;6.10;99.90;6.70;100776.00;;;;347745;27;82503;-86
2023/02/15 00:31:48;;;;;;;;;;;6.10;99.90;6.70;100779.00;;;;347181;28;90208;-87
2023/02/15 00:31:59;;;;;;;;;;;6.10;99.90;6.80;100785.00;;;;344833;28;83402;-87
2023/02/15 00:32:11;;;;;;;;;;;6.10;99.90;6.80;100782.00;;;;345587;28;90554;-87
2023/02/15 00:32:23;;;;;;;;;;;6.10;99.90;6.80;100777.00;;;;347490;28;83262;-87
2023/02/15 00:32:34;;;;;;;;;;;6.10;99.90;6.80;100776.00;;;;346986;28;92661;-87
2023/02/15 00:32:47;;;;;;;;;;;6.10;99.90;6.90;100781.00;;;;347556;28;83326;-87
2023/02/15 00:32:59;;;;;;;;;;;6.20;99.90;6.90;100777.00;;;;348237;27;92525;-87
2023/02/15 00:33:11;;;;;;;;;;;6.20;99.90;6.80;100776.00;;;;347574;28;83417;-87
2023/02/15 00:33:24;;;;;;;;;;;6.20;99.90;6.80;100778.00;;;;345777;28;88884;-87
2023/02/15 00:33:37;;;;;;;;;;;6.20;99.90;6.80;100783.00;;;;345952;28;83396;-87
2023/02/15 00:33:48;;;;;;;;;;;6.20;99.90;6.70;100776.00;;;;348443;27;91634;-87
2023/02/15 00:34:09;;;;;;;;;;;6.20;99.90;6.60;100785.00;;;;346071;28;83462;-87
2023/02/15 00:34:23;;;;;;;;;;;6.10;99.90;6.60;100770.00;;;;347007;28;89833;-87
2023/02/15 00:34:34;;;;;;;;;;;6.10;99.90;6.60;100778.00;;;;347542;28;82446;-87
2023/02/15 00:34:46;;;;;;;;;;;6.10;99.90;6.60;100775.00;;;;347012;28;91497;-87
2023/02/15 00:34:58;;;;;;;;;;;6.10;99.90;6.60;100781.00;;;;347466;28;83426;-87
2023/02/15 00:35:10;;;;;;;;;;;6.10;99.90;6.70;100775.00;;;;348479;27;90021;-87
2023/02/15 00:35:22;;;;;;;;;;;6.10;99.90;6.70;100780.00;;;;350349;27;83389;-87
2023/02/15 00:35:34;;;;;;;;;;;6.20;99.90;6.70;100787.00;;;;346892;28;91511;-87
2023/02/15 00:35:45;;;;;;;;;;;6.10;99.90;6.60;100783.00;;;;347515;28;82524;-86
2023/02/15 00:35:58;;;;;;;;;;;6.10;99.90;6.60;100781.00;;;;348511;27;89055;-86
2023/02/15 00:36:10;;;;;;;;;;;6.10;99.90;6.50;100780.00;;;;347236;28;82536;-86
2023/02/15 00:36:22;;;;;;;;;;;6.10;99.90;6.60;100778.00;;;;346907;28;92348;-87
2023/02/15 00:36:34;;;;;;;;;;;6.10;99.90;6.50;100782.00;;;;347490;28;83514;-87
2023/02/15 00:36:46;;;;;;;;;;;6.10;99.90;6.50;100786.00;;;;346923;28;91417;-87
2023/02/15 00:36:57;;;;;;;;;;;6.10;99.90;6.70;100781.00;;;;348891;27;83358;-87
2023/02/15 00:37:09;;;;;;;;;;;6.10;99.90;6.70;100779.00;;;;348533;27;89107;-87
2023/02/15 00:37:21;;;;;;;;;;;6.10;99.90;6.70;100781.00;;;;346079;28;82594;-87
2023/02/15 00:37:33;;;;;;;;;;;6.10;99.90;6.60;100780.00;;;;345511;28;91039;-86
2023/02/15 00:37:44;;;;;;;;;;;6.10;99.90;6.60;100777.00;;;;347625;28;83299;-87
2023/02/15 00:37:56;;;;;;;;;;;6.10;99.90;6.60;100779.00;;;;345633;28;89497;-86
2023/02/15 00:38:08;;;;;;;;;;;6.10;99.90;6.60;100783.00;;;;346153;28;83319;-87
2023/02/15 00:38:19;;;;;;;;;;;6.10;99.90;6.60;100774.00;;;;348352;27;92515;-87
2023/02/15 00:38:31;;;;;;;;;;;6.10;99.90;6.60;100783.00;;;;348954;27;82403;-86
2023/02/15 00:38:43;;;;;;;;;;;6.10;99.90;6.60;100777.00;;;;347132;28;90577;-87
2023/02/15 00:38:55;;;;;;;;;;;6.10;99.90;6.60;100779.00;;;;347371;28;83557;-87
2023/02/15 00:39:07;;;;;;;;;;;6.10;99.90;6.50;100773.00;;;;347043;28;91894;-87
2023/02/15 00:39:19;;;;;;;;;;;6.10;99.90;6.50;100778.00;;;;347278;28;83369;-87
2023/02/15 00:39:31;;;;;;;;;;;6.10;99.90;6.50;100777.00;;;;345491;28;92002;-87
2023/02/15 00:39:42;;;;;;;;;;;6.00;99.90;6.60;100791.00;;;;347491;28;83545;-87
2023/02/15 00:39:54;;;;;;;;;;;6.00;99.90;6.60;100779.00;;;;347114;28;88760;-87
2023/02/15 00:40:06;;;;;;;;;;;6.00;99.90;6.60;100779.00;;;;348758;27;83444;-87
2023/02/15 00:40:18;;;;;;;;;;;6.00;99.90;6.60;100773.00;;;;347084;28;88841;-87
2023/02/15 00:40:30;;;;;;;;;;;6.00;99.90;6.60;100779.00;;;;348820;27;83454;-87
2023/02/15 00:40:42;;;;;;;;;;;6.10;99.90;6.60;100778.00;;;;348508;27;91095;-87
2023/02/15 00:40:54;;;;;;;;;;;6.00;99.90;6.50;100777.00;;;;347312;27;83459;-87
2023/02/15 00:41:07;;;;;;;;;;;6.00;99.90;6.50;100775.00;;;;348423;27;91357;-86
2023/02/15 00:41:19;;;;;;;;;;;6.00;99.90;6.60;100774.00;;;;348968;27;83387;-87
2023/02/15 00:41:31;;;;;;;;;;;6.00;99.90;6.60;100781.00;;;;349762;27;90765;-87
2023/02/15 00:41:43;;;;;;;;;;;6.00;99.90;6.70;100772.00;;;;348962;27;83371;-87
2023/02/15 00:41:55;;;;;;;;;;;6.00;99.90;6.70;100776.00;;;;346974;28;92533;-87
2023/02/15 00:42:07;;;;;;;;;;;6.00;99.90;6.70;100776.00;;;;347393;28;82275;-87
2023/02/15 00:42:18;;;;;;;;;;;6.00;99.90;6.70;100784.00;;;;347004;28;90154;-87
2023/02/15 00:42:30;;;;;;;;;;;6.00;99.90;6.60;100779.00;;;;348885;27;83423;-87
2023/02/15 00:42:42;;;;;;;;;;;6.00;99.90;6.60;100772.00;;;;349893;27;92658;-87
2023/02/15 00:42:54;;;;;;;;;;;6.10;99.90;6.60;100777.00;;;;348813;27;83558;-87
2023/02/15 00:43:05;;;;;;;;;;;6.00;99.90;6.60;100771.00;;;;349881;27;92316;-87
2023/02/15 00:43:17;;;;;;;;;;;6.00;99.90;6.60;100777.00;;;;347210;28;83449;-87
2023/02/15 00:43:29;;;;;;;;;;;6.00;99.90;6.60;100773.00;;;;348408;27;89116;-87
2023/02/15 00:43:41;;;;;;;;;;;6.00;99.90;6.60;100776.00;;;;348865;27;82549;-87
2023/02/15 00:43:53;;;;;;;;;;;6.00;99.90;6.60;100771.00;;;;348544;27;88342;-87
2023/02/15 00:44:05;;;;;;;;;;;6.00;99.90;6.60;100773.00;;;;347494;28;83553;-86
2023/02/15 00:44:17;;;;;;;;;;;6.00;99.90;6.60;100776.00;;;;346906;28;92256;-87
2023/02/15 00:44:28;;;;;;;;;;;6.00;99.90;6.60;100770.00;;;;348848;27;82706;-87
2023/02/15 00:44:40;;;;;;;;;;;6.00;99.90;6.60;100770.00;;;;347003;28;92256;-87
2023/02/15 00:44:52;;;;;;;;;;;6.00;99.90;6.50;100766.00;;;;346077;28;83325;-87
2023/02/15 00:45:04;;;;;;;;;;;6.00;99.90;6.50;100772.00;;;;347051;28;89167;-87
2023/02/15 00:45:16;;;;;;;;;;;6.00;99.90;6.60;100768.00;;;;348810;27;83437;-87
2023/02/15 00:45:28;;;;;;;;;;;6.00;99.90;6.60;100773.00;;;;346992;28;91383;-87
2023/02/15 00:45:39;;;;;;;;;;;6.00;99.90;6.70;100764.00;;;;346088;28;83575;-87
2023/02/15 00:45:51;;;;;;;;;;;6.00;99.90;6.70;100771.00;;;;347081;28;88861;-87
2023/02/15 00:46:04;;;;;;;;;;;6.00;99.90;6.70;100770.00;;;;347431;28;83380;-87
2023/02/15 00:46:15;;;;;;;;;;;6.00;99.90;6.60;100765.00;;;;345512;28;90146;-87
2023/02/15 00:46:27;;;;;;;;;;;6.00;99.90;6.60;100768.00;;;;348558;27;83418;-87
2023/02/15 00:46:39;;;;;;;;;;;6.00;99.90;6.60;100764.00;;;;348460;27;88751;-87
2023/02/15 00:46:51;;;;;;;;;;;6.00;99.90;6.60;100758.00;;;;347374;27;83512;-87
2023/02/15 00:47:03;;;;;;;;;;;6.00;99.90;6.60;100773.00;;;;347093;28;88810;-87
2023/02/15 00:47:14;;;;;;;;;;;6.00;99.90;6.50;100767.00;;;;347438;28;83427;-87
2023/02/15 00:47:26;;;;;;;;;;;6.00;99.90;6.50;100768.00;;;;349707;27;92279;-87
2023/02/15 00:47:38;;;;;;;;;;;6.00;99.90;6.60;100765.00;;;;347363;28;83473;-87
2023/02/15 00:47:49;;;;;;;;;;;6.00;99.90;6.70;100765.00;;;;347107;28;89050;-87
2023/02/15 00:48:01;;;;;;;;;;;6.00;99.90;6.80;100767.00;;;;348828;27;82471;-87
2023/02/15 00:48:13;;;;;;;;;;;6.00;99.90;6.80;100763.00;;;;346958;28;89747;-87
2023/02/15 00:48:25;;;;;;;;;;;6.00;99.90;6.80;100760.00;;;;348883;27;83325;-87
2023/02/15 00:48:36;;;;;;;;;;;6.00;99.90;6.80;100767.00;;;;349844;27;92159;-87
2023/02/15 00:48:48;;;;;;;;;;;6.00;99.90;6.90;100767.00;;;;347129;28;83455;-87
2023/02/15 00:49:00;;;;;;;;;;;6.10;99.90;6.80;100766.00;;;;346970;28;89714;-87
2023/02/15 00:49:12;;;;;;;;;;;6.00;99.90;6.70;100767.00;;;;350267;27;82483;-87
2023/02/15 00:49:23;;;;;;;;;;;6.10;99.90;6.70;100772.00;;;;347079;28;89167;-87
2023/02/15 00:49:35;;;;;;;;;;;6.00;99.90;6.70;100766.00;;;;347584;28;83356;-87
2023/02/15 00:49:47;;;;;;;;;;;6.00;99.90;6.70;100774.00;;;;348403;27;92503;-87
2023/02/15 00:49:59;;;;;;;;;;;6.10;99.90;6.70;100772.00;;;;348840;27;83327;-87
2023/02/15 00:50:10;;;;;;;;;;;6.10;99.90;6.70;100761.00;;;;348362;27;90414;-87
2023/02/15 00:50:22;;;;;;;;;;;6.00;99.90;6.60;100770.00;;;;348853;27;82503;-87
2023/02/15 00:50:34;;;;;;;;;;;6.10;99.90;6.60;100760.00;;;;347135;28;89463;-87
2023/02/15 00:50:50;;;;;;;;;;;6.00;99.90;6.60;100762.00;;;;348790;27;83466;-87
2023/02/15 00:51:02;;;;;;;;;;;6.00;99.90;6.60;100765.00;;;;349829;27;89256;-87
2023/02/15 00:51:14;;;;;;;;;;;6.00;99.90;6.70;100760.00;;;;347270;28;83402;-86
2023/02/15 00:51:25;;;;;;;;;;;6.00;99.90;6.70;100768.00;;;;345568;28;87971;-87
2023/02/15 00:51:37;;;;;;;;;;;6.00;99.90;6.60;100759.00;;;;348823;27;83422;-87
2023/02/15 00:51:49;;;;;;;;;;;6.00;99.90;6.60;100764.00;;;;345638;28;90291;-87
2023/02/15 00:52:01;;;;;;;;;;;6.00;99.90;6.70;100769.00;;;;348882;27;83412;-87
2023/02/15 00:52:13;;;;;;;;;;;6.00;99.90;6.60;100775.00;;;;349744;27;90178;-87
2023/02/15 00:52:24;;;;;;;;;;;6.00;99.90;6.50;100766.00;;;;350286;27;83489;-86
2023/02/15 00:52:36;;;;;;;;;;;6.00;99.90;6.50;100770.00;;;;348458;27;89995;-87
2023/02/15 00:52:48;;;;;;;;;;;6.00;99.90;6.50;100768.00;;;;348867;27;83445;-86
2023/02/15 00:52:59;;;;;;;;;;;6.00;99.90;6.60;100766.00;;;;348278;27;92985;-87
2023/02/15 00:53:11;;;;;;;;;;;6.00;99.90;6.60;100773.00;;;;350319;27;83433;-87
2023/02/15 00:53:23;;;;;;;;;;;6.00;99.90;6.50;100765.00;;;;345643;28;89072;-87
2023/02/15 00:53:35;;;;;;;;;;;6.00;99.90;6.50;100769.00;;;;348845;27;83455;-87
2023/02/15 00:53:47;;;;;;;;;;;6.00;99.90;6.40;100771.00;;;;348527;27;88810;-87
2023/02/15 00:53:59;;;;;;;;;;;6.00;99.90;6.40;100760.00;;;;344394;28;83296;-87
2023/02/15 00:54:10;;;;;;;;;;;6.00;99.90;6.30;100765.00;;;;348301;27;91935;-87
2023/02/15 00:54:22;;;;;;;;;;;6.00;99.90;6.30;100772.00;;;;350310;27;83416;-87
2023/02/15 00:54:34;;;;;;;;;;;6.00;99.90;6.30;100769.00;;;;345643;28;91352;-87
2023/02/15 00:54:46;;;;;;;;;;;6.00;99.90;6.30;100767.00;;;;348922;27;82454;-87
2023/02/15 00:54:58;;;;;;;;;;;6.00;99.90;6.40;100770.00;;;;346943;28;92256;-87
2023/02/15 00:55:09;;;;;;;;;;;5.90;99.90;6.40;100761.00;;;;347553;28;82448;-87
2023/02/15 00:55:21;;;;;;;;;;;5.90;99.90;6.40;100767.00;;;;345698;28;91186;-87
2023/02/15 00:55:33;;;;;;;;;;;5.90;99.90;6.40;100766.00;;;;348787;27;83475;-88
2023/02/15 00:55:45;;;;;;;;;;;5.90;99.90;6.30;100766.00;;;;347072;28;91316;-87
2023/02/15 00:55:57;;;;;;;;;;;5.90;99.90;6.40;100762.00;;;;348785;27;83513;-87
2023/02/15 00:56:08;;;;;;;;;;;5.90;99.90;6.40;100757.00;;;;346949;28;93216;-87
2023/02/15 00:56:20;;;;;;;;;;;5.90;99.90;6.60;100771.00;;;;348803;27;83934;-87
2023/02/15 00:56:32;;;;;;;;;;;5.90;99.90;6.50;100770.00;;;;347039;28;91272;-87
2023/02/15 00:56:44;;;;;;;;;;;5.90;99.90;6.40;100766.00;;;;347504;28;83370;-86
2023/02/15 00:56:56;;;;;;;;;;;5.90;99.90;6.50;100770.00;;;;346971;28;91654;-85
2023/02/15 00:57:07;;;;;;;;;;;5.90;99.90;6.40;100769.00;;;;347438;28;82479;-87
2023/02/15 00:57:19;;;;;;;;;;;5.90;99.90;6.40;100775.00;;;;348163;27;92506;-87
2023/02/15 00:57:31;;;;;;;;;;;5.90;99.90;6.50;100768.00;;;;348708;27;83476;-87
2023/02/15 00:57:43;;;;;;;;;;;5.90;99.90;6.50;100776.00;;;;347042;28;92202;-86
2023/02/15 00:57:54;;;;;;;;;;;5.90;99.90;6.40;100773.00;;;;348930;27;83320;-87
2023/02/15 00:58:07;;;;;;;;;;;5.90;99.90;6.40;100771.00;;;;346982;28;92384;-87
2023/02/15 00:58:19;;;;;;;;;;;5.90;99.90;6.40;100772.00;;;;346035;28;83463;-87
2023/02/15 00:58:30;;;;;;;;;;;5.90;99.90;6.40;100770.00;;;;348374;27;92369;-87
2023/02/15 00:58:42;;;;;;;;;;;5.90;99.90;6.40;100766.00;;;;347565;28;83295;-87
2023/02/15 00:58:54;;;;;;;;;;;5.90;99.90;6.40;100772.00;;;;346850;28;91880;-87
2023/02/15 00:59:08;;;;;;;;;;;5.90;99.90;6.40;100771.00;;;;347508;28;82405;-87
2023/02/15 00:59:20;;;;;;;;;;;5.90;99.90;6.50;100770.00;;;;345268;28;89473;-87
2023/02/15 00:59:31;;;;;;;;;;;5.90;99.90;6.40;100771.00;;;;347459;28;83289;-87
2023/02/15 00:59:43;;;;;;;;;;;5.90;99.90;6.40;100771.00;;;;347088;28;89577;-87
2023/02/15 00:59:55;;;;;;;;;;;5.80;99.90;6.30;100771.00;;;;348913;27;82589;-87
2023/02/15 01:00:07;;;;;;;;;;;5.80;99.90;6.30;100770.00;;;;346895;28;92979;-87
2023/02/15 01:00:19;;;;;;;;;;;5.80;99.90;6.30;100768.00;;;;344621;28;83497;-86
2023/02/15 01:00:31;;;;;;;;;;;5.80;99.90;6.30;100766.00;;;;346957;28;91036;-87
2023/02/15 01:00:44;;;;;;;;;;;5.80;99.90;6.30;100769.00;;;;347367;28;83401;-87
2023/02/15 01:01:05;;;;;;;;;;;5.80;99.90;6.30;100759.00;;;;347026;27;88501;-87
2023/02/15 01:01:18;;;;;;;;;;;5.80;99.90;6.40;100776.00;;;;347391;28;83482;-87